Time;durP1;ratioP1;P1;durP2;ratioP2;P2;SDS_P1;SDS_P2;PMS_P1;PMS_P2;Temp;Humidity;BMP_temperature;BMP_pressure;BME280_temperature;BME280_humidity;BME280_pressure;Samples;Min_cycle;Max_cycle;Signal;HPM_P1;HPM_P2
2024/04/01 00:00:42;;;;;;;11.77;9.77;;;15.90;77.50;;;;;;4961076;28;20023;-38
2024/04/01 00:03:08;;;;;;;10.75;9.45;;;15.90;77.40;;;;;;4952580;28;20031;-35
2024/04/01 00:05:33;;;;;;;12.10;10.45;;;15.90;77.40;;;;;;4950287;28;20035;-36
2024/04/01 00:07:59;;;;;;;11.55;9.10;;;15.90;77.50;;;;;;4953891;28;20031;-37
2024/04/01 00:10:25;;;;;;;12.38;10.07;;;15.80;77.40;;;;;;4955706;28;20019;-36
2024/04/01 00:12:53;;;;;;;11.73;8.77;;;15.80;77.40;;;;;;4957211;28;20415;-38
2024/04/01 00:15:19;;;;;;;12.88;9.25;;;15.80;77.40;;;;;;4972573;28;20046;-38
2024/04/01 00:17:45;;;;;;;10.55;9.45;;;15.70;77.40;;;;;;4976440;28;20068;-38
2024/04/01 00:20:11;;;;;;;10.70;9.32;;;15.70;77.50;;;;;;4982685;28;20574;-38
2024/04/01 00:22:37;;;;;;;10.80;9.25;;;15.70;77.50;;;;;;4964461;28;20515;-38
2024/04/01 00:25:04;;;;;;;10.50;9.10;;;15.70;77.50;;;;;;4957726;28;20059;-39
2024/04/01 00:27:30;;;;;;;10.75;8.82;;;15.60;77.40;;;;;;4973381;28;20086;-37
2024/04/01 00:29:55;;;;;;;10.32;8.63;;;15.60;77.40;;;;;;4965552;28;20015;-39
2024/04/01 00:32:21;;;;;;;11.48;8.60;;;15.60;77.40;;;;;;4975547;28;20138;-39
2024/04/01 00:34:47;;;;;;;10.68;9.23;;;15.50;77.40;;;;;;4977334;28;20038;-37
2024/04/01 00:37:13;;;;;;;10.43;8.32;;;15.50;77.40;;;;;;4972978;28;20087;-38
2024/04/01 00:39:39;;;;;;;11.75;9.20;;;15.50;77.40;;;;;;4983654;28;20034;-37
2024/04/01 00:42:04;;;;;;;11.43;8.40;;;15.50;77.40;;;;;;4983210;28;20038;-38
2024/04/01 00:44:31;;;;;;;10.50;8.43;;;15.50;77.50;;;;;;4979553;28;20106;-38
2024/04/01 00:46:57;;;;;;;10.85;8.60;;;15.40;77.40;;;;;;4974906;28;20038;-39
2024/04/01 00:49:24;;;;;;;10.63;8.10;;;15.40;77.40;;;;;;4959067;28;20031;-37
2024/04/01 00:51:51;;;;;;;9.70;7.75;;;15.40;77.40;;;;;;4976377;28;20034;-36
2024/04/01 00:54:17;;;;;;;10.82;8.85;;;15.40;77.50;;;;;;4973746;28;20023;-36
2024/04/01 00:56:46;;;;;;;8.50;7.53;;;15.30;77.40;;;;;;4976912;28;20022;-36
2024/04/01 00:59:14;;;;;;;9.00;7.53;;;15.30;78.10;;;;;;4972409;28;20078;-39
2024/04/01 01:01:41;;;;;;;9.68;7.80;;;15.30;77.40;;;;;;4982900;28;20015;-35
2024/04/01 01:04:07;;;;;;;9.95;7.70;;;15.30;77.40;;;;;;4970086;28;20042;-34
2024/04/01 01:06:34;;;;;;;10.07;7.45;;;15.20;77.40;;;;;;4976422;28;20035;-35
2024/04/01 01:09:00;;;;;;;10.73;8.02;;;15.20;77.40;;;;;;4975965;28;20022;-38
2024/04/01 01:11:26;;;;;;;9.27;7.72;;;15.20;77.50;;;;;;4981063;28;20031;-35
2024/04/01 01:13:52;;;;;;;8.70;7.78;;;15.20;77.50;;;;;;4949063;28;20416;-38
2024/04/01 01:16:17;;;;;;;9.45;7.88;;;15.10;77.40;;;;;;4970903;28;20065;-37
2024/04/01 01:18:43;;;;;;;9.48;7.82;;;15.10;77.50;;;;;;4975370;28;20019;-36
2024/04/01 01:21:09;;;;;;;8.80;7.65;;;15.10;78.10;;;;;;4988293;28;20499;-35
2024/04/01 01:23:35;;;;;;;10.05;7.80;;;15.10;77.50;;;;;;4963874;28;20022;-37
2024/04/01 01:26:01;;;;;;;9.60;7.53;;;15.10;77.50;;;;;;4969261;28;20047;-39
2024/04/01 01:28:29;;;;;;;8.73;7.80;;;15.00;77.50;;;;;;4972108;28;20115;-34
2024/04/01 01:30:55;;;;;;;9.68;7.47;;;15.00;77.50;;;;;;4974257;28;20084;-37
2024/04/01 01:33:22;;;;;;;9.65;7.68;;;15.00;77.60;;;;;;4976866;28;20015;-35
2024/04/01 01:35:48;;;;;;;9.70;7.25;;;15.00;77.60;;;;;;4971131;28;20577;-36
2024/04/01 01:38:15;;;;;;;9.50;7.18;;;14.90;77.60;;;;;;4974575;28;20023;-36
2024/04/01 01:40:40;;;;;;;8.85;7.47;;;14.90;77.50;;;;;;4965830;28;20026;-39
2024/04/01 01:43:06;;;;;;;8.88;7.55;;;14.90;77.60;;;;;;4976553;28;20062;-36
2024/04/01 01:45:32;;;;;;;8.23;7.03;;;14.90;77.60;;;;;;4975432;28;20035;-35
2024/04/01 01:47:58;;;;;;;8.65;7.10;;;14.90;77.60;;;;;;4974845;28;20035;-37
2024/04/01 01:50:23;;;;;;;7.68;6.30;;;14.80;77.60;;;;;;4973620;28;20023;-38
2024/04/01 01:52:50;;;;;;;8.77;6.70;;;14.80;77.60;;;;;;4971893;28;20023;-35
2024/04/01 01:55:16;;;;;;;7.43;6.43;;;14.80;77.60;;;;;;4974692;28;21041;-35
2024/04/01 01:57:41;;;;;;;8.05;6.50;;;14.80;77.70;;;;;;4976015;28;20063;-35
2024/04/01 02:00:13;;;;;;;7.65;6.40;;;14.80;77.70;;;;;;4983105;28;20042;-39
2024/04/01 02:02:42;;;;;;;8.48;7.05;;;14.70;77.60;;;;;;4976228;28;20039;-36
2024/04/01 02:05:08;;;;;;;9.00;6.22;;;14.70;77.60;;;;;;4977074;28;20062;-37
2024/04/01 02:07:34;;;;;;;7.57;6.38;;;14.70;77.60;;;;;;4969205;28;20043;-34
2024/04/01 02:10:01;;;;;;;7.43;6.20;;;14.60;77.70;;;;;;4976055;28;20034;-36
2024/04/01 02:12:27;;;;;;;7.93;6.13;;;14.70;77.80;;;;;;4976331;28;20221;-32
2024/04/01 02:14:53;;;;;;;7.45;6.35;;;14.60;77.70;;;;;;4955567;28;20649;-36
2024/04/01 02:17:19;;;;;;;6.95;5.47;;;14.60;77.70;;;;;;4978722;28;20027;-36
2024/04/01 02:19:45;;;;;;;6.53;5.43;;;14.60;77.80;;;;;;4984669;28;20026;-38
2024/04/01 02:22:14;;;;;;;7.68;5.70;;;14.60;77.80;;;;;;4953166;28;20391;-38
2024/04/01 02:24:41;;;;;;;6.53;5.40;;;14.50;77.80;;;;;;4972731;28;20046;-36
2024/04/01 02:27:09;;;;;;;6.53;5.28;;;14.50;77.80;;;;;;4977286;28;20039;-35
2024/04/01 02:29:38;;;;;;;6.65;5.60;;;14.50;77.80;;;;;;4974409;28;20026;-38
2024/04/01 02:32:04;;;;;;;7.15;5.45;;;14.50;77.80;;;;;;4982393;28;20029;-33
2024/04/01 02:34:30;;;;;;;6.25;4.88;;;14.50;77.80;;;;;;4973100;28;20475;-36
2024/04/01 02:36:55;;;;;;;6.50;5.03;;;14.50;77.90;;;;;;4968055;28;20015;-33
2024/04/01 02:39:22;;;;;;;6.20;5.00;;;14.40;77.80;;;;;;4977380;28;20038;-38
2024/04/01 02:41:48;;;;;;;6.78;5.13;;;14.40;77.80;;;;;;4976115;28;20023;-40
2024/04/01 02:44:14;;;;;;;8.02;5.43;;;14.40;78.50;;;;;;4970818;28;20438;-38
2024/04/01 02:46:41;;;;;;;6.15;4.72;;;14.40;77.90;;;;;;4975005;28;20116;-38
2024/04/01 02:49:09;;;;;;;7.32;4.70;;;14.40;77.90;;;;;;4949741;28;20383;-33
2024/04/01 02:51:34;;;;;;;5.72;4.68;;;14.40;78.00;;;;;;4979281;28;20023;-36
2024/04/01 02:54:00;;;;;;;8.30;4.82;;;14.30;77.90;;;;;;4967674;28;20114;-34
2024/04/01 02:56:26;;;;;;;5.97;4.57;;;14.30;77.90;;;;;;4969768;28;20045;-37
2024/04/01 02:58:52;;;;;;;5.65;4.40;;;14.30;78.00;;;;;;4973439;28;20027;-35
2024/04/01 03:01:18;;;;;;;6.32;4.72;;;14.30;78.00;;;;;;4978335;28;20109;-32
2024/04/01 03:03:48;;;;;;;6.13;4.28;;;14.30;78.00;;;;;;4979401;28;20047;-33
2024/04/01 03:06:14;;;;;;;6.93;4.43;;;14.30;78.00;;;;;;4979338;28;20043;-33
2024/04/01 03:08:40;;;;;;;5.63;4.40;;;14.20;78.00;;;;;;4968666;28;20079;-39
2024/04/01 03:11:06;;;;;;;6.32;4.85;;;14.30;78.10;;;;;;4974816;28;20101;-34
2024/04/01 03:13:32;;;;;;;5.22;4.03;;;14.20;78.00;;;;;;4963910;28;20443;-37
2024/04/01 03:15:58;;;;;;;5.22;4.10;;;14.20;78.00;;;;;;4975011;28;20019;-35
2024/04/01 03:18:25;;;;;;;6.07;4.25;;;14.20;78.00;;;;;;4974499;28;20035;-35
2024/04/01 03:20:52;;;;;;;5.60;4.30;;;14.20;78.00;;;;;;4981275;28;20034;-36
2024/04/01 03:23:18;;;;;;;5.45;4.10;;;14.20;78.10;;;;;;4973148;28;20035;-37
2024/04/01 03:25:51;;;;;;;5.75;4.22;;;14.20;78.10;;;;;;4959034;28;20026;-35
2024/04/01 03:28:18;;;;;;;5.32;3.90;;;14.20;78.10;;;;;;4974250;28;20027;-37
2024/04/01 03:30:45;;;;;;;4.72;3.75;;;14.10;78.10;;;;;;4981769;28;20060;-39
2024/04/01 03:33:12;;;;;;;5.20;4.00;;;14.10;78.10;;;;;;4974319;28;20139;-36
2024/04/01 03:35:41;;;;;;;4.60;3.70;;;14.10;78.20;;;;;;4958843;28;20074;-38
2024/04/01 03:38:08;;;;;;;4.32;3.70;;;14.10;78.20;;;;;;4970543;28;20102;-36
2024/04/01 03:40:41;;;;;;;4.72;3.47;;;14.10;78.20;;;;;;4977448;28;20147;-36
2024/04/01 03:43:10;;;;;;;5.65;3.75;;;14.00;78.20;;;;;;4966831;28;20059;-37
2024/04/01 03:45:36;;;;;;;5.32;3.70;;;14.00;78.10;;;;;;4972758;28;20023;-33
2024/04/01 03:48:02;;;;;;;4.07;3.22;;;14.00;78.20;;;;;;4954533;28;20118;-38
2024/04/01 03:50:28;;;;;;;4.60;3.50;;;14.00;78.20;;;;;;4977006;28;20027;-36
2024/04/01 03:52:54;;;;;;;6.13;3.78;;;14.00;78.20;;;;;;4970894;28;20587;-38
2024/04/01 03:55:20;;;;;;;4.78;3.92;;;14.00;78.20;;;;;;4974419;28;20023;-35
2024/04/01 03:57:46;;;;;;;4.30;3.63;;;13.90;78.20;;;;;;4975848;28;20050;-38
2024/04/01 04:00:14;;;;;;;4.45;3.40;;;13.90;78.20;;;;;;4973690;28;20023;-37
2024/04/01 04:02:42;;;;;;;3.90;3.35;;;13.90;78.20;;;;;;4978268;28;20022;-38
2024/04/01 04:05:09;;;;;;;6.13;3.72;;;13.90;78.30;;;;;;4968902;28;20301;-37
2024/04/01 04:07:36;;;;;;;4.93;3.40;;;13.90;78.20;;;;;;4981718;28;20053;-37
2024/04/01 04:10:03;;;;;;;5.65;3.50;;;13.90;78.20;;;;;;4969991;28;20039;-34
2024/04/01 04:12:31;;;;;;;4.70;3.60;;;13.80;78.20;;;;;;4982538;28;20027;-38
2024/04/01 04:15:04;;;;;;;5.40;3.50;;;13.80;78.30;;;;;;4981665;28;20434;-35
2024/04/01 04:17:31;;;;;;;4.80;3.70;;;13.80;78.30;;;;;;4979334;28;20023;-35
2024/04/01 04:19:56;;;;;;;4.15;3.25;;;13.80;78.30;;;;;;4963398;28;20026;-38
2024/04/01 04:22:22;;;;;;;4.60;3.47;;;13.80;78.40;;;;;;4977478;28;20039;-38
2024/04/01 04:24:48;;;;;;;5.05;3.38;;;13.70;78.30;;;;;;4955226;28;20023;-38
2024/04/01 04:27:14;;;;;;;5.00;3.33;;;13.80;78.40;;;;;;4973006;28;20039;-34
2024/04/01 04:29:39;;;;;;;4.38;3.40;;;13.70;78.30;;;;;;4982792;28;20072;-36
2024/04/01 04:32:12;;;;;;;4.57;3.55;;;13.70;78.30;;;;;;4983384;28;20037;-36
2024/04/01 04:34:39;;;;;;;4.18;3.30;;;13.70;79.00;;;;;;4976675;28;20519;-36
2024/04/01 04:37:06;;;;;;;4.50;3.60;;;13.70;78.40;;;;;;4978716;28;20024;-36
2024/04/01 04:39:37;;;;;;;5.07;3.53;;;13.70;78.40;;;;;;4976813;28;20038;-34
2024/04/01 04:42:03;;;;;;;4.63;3.38;;;13.70;78.40;;;;;;4978201;28;20548;-39
2024/04/01 04:44:29;;;;;;;4.72;3.42;;;13.70;78.40;;;;;;4975631;28;20057;-34
2024/04/01 04:46:55;;;;;;;4.55;3.45;;;13.60;78.40;;;;;;4964904;28;20081;-38
2024/04/01 04:49:20;;;;;;;4.00;3.35;;;13.60;78.40;;;;;;4976376;28;20035;-38
2024/04/01 04:51:46;;;;;;;4.15;3.38;;;13.60;78.40;;;;;;4980870;28;20035;-39
2024/04/01 04:54:12;;;;;;;5.15;3.50;;;13.60;78.40;;;;;;4974482;28;20023;-38
2024/04/01 04:56:38;;;;;;;4.45;3.20;;;13.60;78.40;;;;;;4967520;28;20041;-35
2024/04/01 04:59:04;;;;;;;4.68;3.40;;;13.60;78.40;;;;;;4975707;28;20023;-38
2024/04/01 05:01:31;;;;;;;4.60;3.20;;;13.60;78.50;;;;;;4973959;28;20033;-34
2024/04/01 05:03:57;;;;;;;4.40;3.30;;;13.60;78.50;;;;;;4975914;28;20087;-39
2024/04/01 05:06:23;;;;;;;4.03;3.50;;;13.50;78.50;;;;;;4976504;28;20069;-39
2024/04/01 05:08:49;;;;;;;5.03;3.58;;;13.50;78.50;;;;;;4974788;28;20090;-38
2024/04/01 05:11:15;;;;;;;4.50;3.40;;;13.50;78.50;;;;;;4985729;28;20031;-36
2024/04/01 05:13:41;;;;;;;4.57;3.60;;;13.50;78.50;;;;;;4977236;28;20043;-38
2024/04/01 05:16:07;;;;;;;3.92;3.00;;;13.50;78.60;;;;;;4971995;28;20023;-38
2024/04/01 05:18:34;;;;;;;5.05;3.50;;;13.50;78.60;;;;;;4975676;28;20139;-36
2024/04/01 05:21:00;;;;;;;3.65;3.10;;;13.50;78.60;;;;;;4955755;28;20034;-39
2024/04/01 05:23:25;;;;;;;4.13;3.20;;;13.40;78.60;;;;;;4973057;28;20030;-36
2024/04/01 05:25:51;;;;;;;4.70;3.38;;;13.40;78.60;;;;;;4972392;28;20062;-37
2024/04/01 05:28:17;;;;;;;4.38;3.40;;;13.40;78.60;;;;;;4980729;28;20018;-35
2024/04/01 05:30:43;;;;;;;6.32;4.10;;;13.50;78.70;;;;;;4976845;28;20041;-37
2024/04/01 05:33:08;;;;;;;5.70;3.53;;;13.40;78.60;;;;;;4980714;28;20057;-38
2024/04/01 05:35:37;;;;;;;6.38;3.63;;;13.40;78.60;;;;;;4989897;28;20038;-35
2024/04/01 05:38:03;;;;;;;4.47;3.25;;;13.40;78.70;;;;;;4964805;28;20034;-35
2024/04/01 05:40:29;;;;;;;4.85;3.30;;;13.40;78.70;;;;;;4962559;28;20030;-38
2024/04/01 05:42:55;;;;;;;4.13;3.42;;;13.40;78.70;;;;;;4980125;28;20051;-37
2024/04/01 05:45:21;;;;;;;4.40;3.50;;;13.40;78.70;;;;;;4951773;28;20039;-38
2024/04/01 05:47:48;;;;;;;3.95;3.10;;;13.40;78.70;;;;;;4974294;28;20039;-40
2024/04/01 05:50:19;;;;;;;5.70;3.38;;;13.30;78.70;;;;;;4974970;28;20023;-35
2024/04/01 05:52:45;;;;;;;4.25;3.20;;;13.30;78.80;;;;;;4967785;28;20790;-35
2024/04/01 05:55:14;;;;;;;4.68;3.13;;;13.30;78.80;;;;;;4975592;28;20478;-36
2024/04/01 05:57:39;;;;;;;5.38;2.90;;;13.30;78.80;;;;;;4978246;28;20353;-37
2024/04/01 06:00:06;;;;;;;3.78;3.15;;;13.30;78.80;;;;;;4978422;28;20018;-38
2024/04/01 06:02:37;;;;;;;4.15;2.90;;;13.30;78.80;;;;;;4974909;28;20026;-37
2024/04/01 06:05:04;;;;;;;4.10;2.90;;;13.30;78.80;;;;;;4968547;28;20384;-36
2024/04/01 06:07:30;;;;;;;3.67;3.15;;;13.30;78.80;;;;;;4979639;28;20069;-32
2024/04/01 06:09:58;;;;;;;4.00;3.28;;;13.30;78.80;;;;;;4978563;28;20019;-38
2024/04/01 06:12:24;;;;;;;4.05;3.25;;;13.30;78.90;;;;;;4979550;28;20031;-36
2024/04/01 06:14:50;;;;;;;4.78;3.13;;;13.30;79.00;;;;;;4969806;28;20057;-37
2024/04/01 06:17:16;;;;;;;3.95;3.17;;;13.30;78.90;;;;;;4975419;28;20110;-37
2024/04/01 06:19:42;;;;;;;4.40;3.33;;;13.30;78.90;;;;;;4980280;28;20035;-33
2024/04/01 06:22:09;;;;;;;4.43;3.22;;;13.20;78.90;;;;;;4978655;28;20035;-35
2024/04/01 06:24:35;;;;;;;4.25;3.08;;;13.20;78.90;;;;;;4978776;28;20034;-37
2024/04/01 06:27:00;;;;;;;4.97;3.17;;;13.20;78.90;;;;;;4977757;28;20031;-34
2024/04/01 06:29:26;;;;;;;3.97;3.20;;;13.20;78.90;;;;;;4981373;28;20042;-38
2024/04/01 06:31:52;;;;;;;4.22;3.20;;;13.20;78.90;;;;;;4980668;28;20022;-36
2024/04/01 06:34:17;;;;;;;4.47;2.80;;;13.20;78.90;;;;;;4967549;28;20118;-36
2024/04/01 06:36:45;;;;;;;4.30;3.20;;;13.20;79.00;;;;;;4973391;28;20041;-38
2024/04/01 06:39:11;;;;;;;4.50;3.28;;;13.20;79.00;;;;;;4967395;28;20082;-35
2024/04/01 06:41:38;;;;;;;4.43;3.03;;;13.20;79.00;;;;;;4990616;28;20530;-41
2024/04/01 06:44:04;;;;;;;4.47;3.15;;;13.20;79.00;;;;;;4975421;28;20030;-35
2024/04/01 06:46:29;;;;;;;3.50;2.80;;;13.20;79.00;;;;;;4978991;28;20038;-35
2024/04/01 06:48:55;;;;;;;3.88;3.17;;;13.20;79.10;;;;;;4975439;28;20038;-36
2024/04/01 06:51:21;;;;;;;3.63;2.92;;;13.20;79.10;;;;;;4985271;28;20415;-34
2024/04/01 06:53:46;;;;;;;3.58;3.10;;;13.20;79.10;;;;;;4961282;28;20023;-36
2024/04/01 06:56:12;;;;;;;4.07;3.00;;;13.10;79.10;;;;;;4965329;28;20133;-38
2024/04/01 06:58:38;;;;;;;4.15;3.08;;;13.10;79.10;;;;;;4976013;28;20114;-37
2024/04/01 07:01:04;;;;;;;3.85;3.10;;;13.20;79.10;;;;;;4972165;28;20046;-35
2024/04/01 07:03:29;;;;;;;3.28;2.70;;;13.10;79.10;;;;;;4971973;28;20027;-37
2024/04/01 07:05:55;;;;;;;4.13;3.05;;;13.20;79.10;;;;;;4979669;28;20031;-35
2024/04/01 07:08:23;;;;;;;3.72;3.08;;;13.20;79.20;;;;;;4972830;28;20027;-35
2024/04/01 07:10:49;;;;;;;3.38;2.60;;;13.20;79.20;;;;;;4980555;28;20027;-32
2024/04/01 07:13:14;;;;;;;3.45;2.95;;;13.20;79.10;;;;;;4958611;28;20047;-34
2024/04/01 07:15:40;;;;;;;4.90;2.88;;;13.20;79.20;;;;;;4975820;28;20019;-37
2024/04/01 07:18:06;;;;;;;3.38;2.90;;;13.20;79.10;;;;;;4969602;28;20026;-33
2024/04/01 07:20:32;;;;;;;3.45;2.78;;;13.20;79.10;;;;;;4978173;28;20039;-37
2024/04/01 07:22:57;;;;;;;2.85;2.55;;;13.20;79.10;;;;;;4953681;28;20038;-34
2024/04/01 07:25:23;;;;;;;3.10;2.50;;;13.20;79.20;;;;;;4968544;28;20023;-35
2024/04/01 07:27:49;;;;;;;3.33;2.70;;;13.20;79.20;;;;;;4980286;28;20596;-37
2024/04/01 07:30:15;;;;;;;4.38;2.60;;;13.20;79.20;;;;;;4982957;28;20091;-38
2024/04/01 07:32:41;;;;;;;3.30;2.53;;;13.20;79.20;;;;;;4985403;28;20086;-37
2024/04/01 07:35:07;;;;;;;3.22;2.50;;;13.20;79.20;;;;;;4979086;28;20042;-37
2024/04/01 07:37:33;;;;;;;3.10;2.45;;;13.20;79.20;;;;;;4978507;28;20035;-35
2024/04/01 07:39:59;;;;;;;3.42;2.50;;;13.20;79.20;;;;;;4976727;28;20030;-33
2024/04/01 07:42:25;;;;;;;2.85;2.55;;;13.20;79.20;;;;;;4978683;28;20109;-35
2024/04/01 07:44:51;;;;;;;4.30;2.80;;;13.20;79.20;;;;;;4977132;28;20073;-35
2024/04/01 07:47:18;;;;;;;3.78;2.70;;;13.20;79.20;;;;;;4970300;28;20312;-38
2024/04/01 07:49:44;;;;;;;3.45;2.58;;;13.20;79.80;;;;;;4973879;28;20043;-35
2024/04/01 07:52:10;;;;;;;3.72;2.50;;;13.20;79.20;;;;;;4978003;28;20621;-36
2024/04/01 07:54:36;;;;;;;3.60;2.65;;;13.20;79.20;;;;;;4979222;28;20387;-36
2024/04/01 07:57:03;;;;;;;3.42;2.60;;;13.20;79.20;;;;;;4977376;28;20015;-39
2024/04/01 07:59:33;;;;;;;3.65;2.70;;;13.30;79.20;;;;;;4974252;28;20046;-38
2024/04/01 08:02:03;;;;;;;3.35;2.63;;;13.30;79.20;;;;;;4974347;28;20031;-35
2024/04/01 08:04:29;;;;;;;3.00;2.50;;;13.30;79.20;;;;;;4966419;28;20642;-41
2024/04/01 08:06:55;;;;;;;3.30;2.45;;;13.30;79.20;;;;;;4970817;28;20054;-35
2024/04/01 08:09:21;;;;;;;2.90;2.58;;;13.30;79.30;;;;;;4978997;28;20035;-40
2024/04/01 08:11:47;;;;;;;4.03;2.45;;;13.30;79.30;;;;;;4976962;28;20023;-35
2024/04/01 08:14:13;;;;;;;3.20;2.40;;;13.30;79.30;;;;;;4957232;28;20082;-35
2024/04/01 08:16:39;;;;;;;3.45;2.50;;;13.30;79.20;;;;;;4967389;28;20031;-38
2024/04/01 08:19:05;;;;;;;3.55;2.70;;;13.30;79.20;;;;;;4963956;28;20087;-34
2024/04/01 08:21:31;;;;;;;3.15;2.45;;;13.30;79.20;;;;;;4964479;28;20051;-38
2024/04/01 08:23:56;;;;;;;2.85;2.42;;;13.30;79.20;;;;;;4976453;28;20476;-32
2024/04/01 08:26:22;;;;;;;4.00;2.60;;;13.30;79.20;;;;;;4974567;28;20042;-37
2024/04/01 08:28:51;;;;;;;2.78;2.40;;;13.30;79.20;;;;;;4980397;28;20081;-38
2024/04/01 08:31:16;;;;;;;3.30;2.50;;;13.40;79.20;;;;;;4958728;28;20050;-35
2024/04/01 08:33:42;;;;;;;3.78;2.50;;;13.40;79.20;;;;;;4972772;28;20050;-35
2024/04/01 08:36:08;;;;;;;3.50;2.70;;;13.40;79.20;;;;;;4974929;28;20027;-36
2024/04/01 08:38:33;;;;;;;3.10;2.42;;;13.40;79.20;;;;;;4974575;28;20050;-34
2024/04/01 08:41:17;;;;;;;3.33;2.33;;;13.40;79.20;;;;;;4975288;28;20016;-35
2024/04/01 08:43:51;;;;;;;4.38;2.42;;;13.40;79.20;;;;;;4959356;28;20560;-34
2024/04/01 08:46:17;;;;;;;3.63;2.47;;;13.40;79.20;;;;;;4954657;28;20044;-37
2024/04/01 08:48:49;;;;;;;3.83;2.60;;;13.40;79.20;;;;;;4969932;28;20032;-38
2024/04/01 08:51:20;;;;;;;4.28;2.80;;;13.40;79.30;;;;;;4986679;28;20057;-36
2024/04/01 08:54:15;;;;;;;4.03;2.85;;;13.40;79.20;;;;;;4975202;28;20027;-33
2024/04/01 08:56:41;;;;;;;2.92;2.60;;;13.40;79.20;;;;;;4964779;28;20066;-37
2024/04/01 08:59:08;;;;;;;3.65;2.40;;;13.40;79.10;;;;;;4978571;28;20019;-36
2024/04/01 09:01:34;;;;;;;3.42;2.70;;;13.40;79.20;;;;;;4979728;28;20034;-37
2024/04/01 09:04:00;;;;;;;3.42;2.75;;;13.40;79.90;;;;;;4978049;28;20028;-36
2024/04/01 09:06:25;;;;;;;3.13;2.72;;;13.50;79.30;;;;;;4977225;28;20045;-36
2024/04/01 09:08:54;;;;;;;3.15;2.67;;;13.50;79.20;;;;;;4980763;28;20027;-37
2024/04/01 09:11:22;;;;;;;3.08;2.67;;;13.50;79.20;;;;;;4992072;28;20106;-38
2024/04/01 09:13:49;;;;;;;3.75;2.70;;;13.50;79.20;;;;;;4973460;28;20050;-34
2024/04/01 09:16:23;;;;;;;3.45;2.85;;;13.50;79.20;;;;;;4976408;28;20491;-37
2024/04/01 09:18:50;;;;;;;4.40;3.00;;;13.60;79.30;;;;;;4971686;28;20074;-36
2024/04/01 09:21:18;;;;;;;4.22;3.17;;;13.50;79.20;;;;;;4943147;29;20094;-35
2024/04/01 09:23:44;;;;;;;3.53;2.88;;;13.60;79.30;;;;;;4972037;28;20023;-35
2024/04/01 09:26:10;;;;;;;3.60;2.67;;;13.50;79.20;;;;;;4971608;28;20068;-35
2024/04/01 09:28:36;;;;;;;3.92;3.13;;;13.60;79.30;;;;;;4981881;28;20126;-36
2024/04/01 09:31:02;;;;;;;4.53;3.50;;;13.60;79.20;;;;;;4966758;28;20046;-35
2024/04/01 09:33:28;;;;;;;4.10;3.30;;;13.60;79.20;;;;;;4990503;28;20038;-34
2024/04/01 09:35:54;;;;;;;4.93;3.50;;;13.60;79.20;;;;;;4975318;28;20022;-37
2024/04/01 09:38:20;;;;;;;4.18;3.30;;;13.60;79.20;;;;;;4972233;28;20195;-38
2024/04/01 09:40:49;;;;;;;5.22;3.60;;;13.60;79.20;;;;;;4984361;28;20038;-34
2024/04/01 09:43:20;;;;;;;4.72;3.80;;;13.70;79.30;;;;;;4953845;28;20027;-37
2024/04/01 09:45:51;;;;;;;4.93;3.58;;;13.60;79.20;;;;;;4978030;28;20058;-38
2024/04/01 09:48:17;;;;;;;4.40;3.45;;;13.70;79.20;;;;;;4974528;28;20047;-37
2024/04/01 09:50:44;;;;;;;4.00;3.47;;;13.70;79.20;;;;;;4987212;28;20026;-39
2024/04/01 09:53:09;;;;;;;5.15;3.42;;;13.70;79.20;;;;;;4979969;28;20025;-38
2024/04/01 09:55:49;;;;;;;4.80;3.60;;;13.70;79.20;;;;;;4975320;28;20054;-34
2024/04/01 09:58:20;;;;;;;5.10;3.80;;;13.70;79.20;;;;;;4976910;28;20016;-37
2024/04/01 10:01:10;;;;;;;4.05;3.40;;;13.80;79.30;;;;;;4983026;28;20110;-37
2024/04/01 10:04:14;;;;;;;4.28;3.20;;;13.80;79.30;;;;;;4989274;28;20054;-37
2024/04/01 10:06:58;;;;;;;4.65;3.55;;;13.80;79.20;;;;;;4967945;28;20043;-35
2024/04/01 10:10:04;;;;;;;4.93;3.50;;;13.70;79.20;;;;;;4973893;28;20046;-40
2024/04/01 10:12:45;;;;;;;4.30;3.40;;;13.80;79.20;;;;;;4956133;28;20038;-41
2024/04/01 10:22:36;;;;;;;4.25;3.20;;;13.80;79.30;;;;;;4973144;28;20062;-35
2024/04/01 10:25:08;;;;;;;;;;;13.80;79.20;;;;;;4971367;28;20067;-31
2024/04/01 10:27:52;;;;;;;4.03;3.13;;;13.70;79.10;;;;;;4964758;28;19918;-33
2024/04/01 10:30:25;;;;;;;4.03;3.38;;;13.80;79.10;;;;;;4967548;28;20058;-33
2024/04/01 10:33:15;;;;;;;3.67;3.10;;;13.80;79.20;;;;;;4961667;28;20090;-32
2024/04/01 10:36:08;;;;;;;5.15;3.90;;;13.90;79.30;;;;;;4972220;28;20029;-33
2024/04/01 10:39:04;;;;;;;4.80;3.50;;;13.90;79.20;;;;;;4971842;28;20026;-36
2024/04/01 10:42:03;;;;;;;4.18;3.33;;;13.90;79.20;;;;;;4970363;28;20043;-36
2024/04/01 10:44:38;;;;;;;4.75;3.67;;;13.90;79.20;;;;;;4951962;28;20046;-34
2024/04/01 10:47:34;;;;;;;5.00;3.70;;;13.90;79.20;;;;;;4963850;28;20042;-35
2024/04/01 10:50:35;;;;;;;3.97;3.38;;;13.90;79.20;;;;;;4955051;28;20099;-34
2024/04/01 10:53:39;;;;;;;4.60;3.50;;;13.90;79.70;;;;;;4966931;28;20086;-33
2024/04/01 10:56:23;;;;;;;4.15;3.30;;;14.00;79.20;;;;;;4965646;28;20055;-35
2024/04/01 10:59:12;;;;;;;4.13;3.53;;;14.00;79.20;;;;;;4968229;28;20499;-35
2024/04/01 11:01:43;;;;;;;4.63;3.80;;;14.00;79.10;;;;;;4968826;28;20031;-35
2024/04/01 11:04:40;;;;;;;4.07;3.42;;;14.10;79.20;;;;;;4962362;28;20051;-32
2024/04/01 11:07:24;;;;;;;4.63;3.83;;;14.00;79.10;;;;;;4976664;28;20043;-33
2024/04/01 11:10:25;;;;;;;4.13;3.58;;;14.00;79.00;;;;;;4960837;28;20023;-32
2024/04/01 11:13:08;;;;;;;4.78;3.70;;;14.00;79.10;;;;;;4910470;29;20024;-35
2024/04/01 11:15:34;;;;;;;5.20;4.25;;;14.10;79.10;;;;;;4959864;28;20042;-32
2024/04/01 11:18:33;;;;;;;6.82;3.88;;;14.10;79.00;;;;;;4965168;28;20023;-38
2024/04/01 11:21:17;;;;;;;4.45;3.83;;;14.20;79.10;;;;;;4957902;28;20039;-39
2024/04/01 11:23:59;;;;;;;5.07;3.63;;;14.20;79.10;;;;;;4961429;28;20037;-33
2024/04/01 11:26:59;;;;;;;4.75;3.78;;;14.20;79.10;;;;;;4963891;28;20034;-37
2024/04/01 11:29:31;;;;;;;5.05;4.20;;;14.20;79.00;;;;;;4955089;28;20054;-33
2024/04/01 11:32:03;;;;;;;4.95;4.25;;;14.20;78.90;;;;;;4961234;28;20034;-36
2024/04/01 11:35:07;;;;;;;5.43;4.15;;;14.30;79.00;;;;;;4962998;28;20054;-36
2024/04/01 11:37:52;;;;;;;5.07;4.25;;;14.30;79.00;;;;;;4975377;28;20130;-34
2024/04/01 11:40:26;;;;;;;4.97;4.00;;;14.30;78.90;;;;;;4969498;28;20077;-34
2024/04/01 11:42:57;;;;;;;5.63;4.60;;;14.30;79.50;;;;;;4963293;28;20035;-36
2024/04/01 11:45:29;;;;;;;5.45;4.43;;;14.30;78.90;;;;;;4959982;28;20027;-34
2024/04/01 11:47:56;;;;;;;5.30;4.68;;;14.30;78.80;;;;;;4967535;28;20115;-35
2024/04/01 11:50:22;;;;;;;5.68;4.78;;;14.40;78.90;;;;;;4962757;28;20379;-35
2024/04/01 11:53:03;;;;;;;5.22;4.68;;;14.40;78.80;;;;;;4942147;28;20028;-35
2024/04/01 11:55:29;;;;;;;5.75;4.60;;;14.40;78.80;;;;;;4974516;28;20495;-36
2024/04/01 11:58:09;;;;;;;6.75;4.53;;;14.40;78.80;;;;;;4968570;28;20038;-36
2024/04/01 12:00:35;;;;;;;6.13;4.75;;;14.40;78.80;;;;;;4966966;28;20023;-34
2024/04/01 12:03:02;;;;;;;5.70;4.60;;;14.40;78.70;;;;;;4961636;28;20607;-34
2024/04/01 12:05:28;;;;;;;5.80;4.40;;;14.40;78.70;;;;;;4947707;28;20112;-37
2024/04/01 12:07:56;;;;;;;4.82;4.00;;;14.50;78.70;;;;;;4976549;28;20066;-33
2024/04/01 12:10:22;;;;;;;5.03;4.05;;;14.50;78.70;;;;;;4946043;28;20051;-34
2024/04/01 12:12:49;;;;;;;5.80;4.55;;;14.50;78.70;;;;;;4961788;28;20024;-37
2024/04/01 12:15:18;;;;;;;6.38;4.40;;;14.50;78.70;;;;;;4955071;28;20027;-33
2024/04/01 12:17:45;;;;;;;6.00;3.92;;;14.50;78.60;;;;;;4961809;28;20027;-32
2024/04/01 12:20:12;;;;;;;7.22;3.75;;;14.60;78.60;;;;;;4965403;28;20027;-34
2024/04/01 12:22:40;;;;;;;4.82;3.65;;;14.60;78.60;;;;;;4964247;28;20438;-36
2024/04/01 12:25:16;;;;;;;5.93;3.78;;;14.60;78.50;;;;;;4967177;28;20336;-32
2024/04/01 12:27:47;;;;;;;5.90;3.80;;;14.60;78.50;;;;;;4969790;28;20033;-34
2024/04/01 12:30:14;;;;;;;5.38;3.85;;;14.60;78.50;;;;;;4970261;28;20420;-35
2024/04/01 12:32:41;;;;;;;5.43;3.70;;;14.60;79.10;;;;;;4951333;28;20118;-37
2024/04/01 12:35:14;;;;;;;6.38;3.50;;;14.70;78.50;;;;;;4968879;28;20056;-37
2024/04/01 12:37:43;;;;;;;5.97;3.40;;;14.70;78.50;;;;;;4965910;28;20043;-36
2024/04/01 12:40:10;;;;;;;5.20;3.35;;;14.80;78.40;;;;;;4967310;28;20526;-33
2024/04/01 12:42:36;;;;;;;4.90;3.17;;;14.80;78.40;;;;;;4963216;28;20628;-33
2024/04/01 12:45:03;;;;;;;4.63;2.72;;;14.80;78.30;;;;;;4966887;28;20520;-35
2024/04/01 12:47:29;;;;;;;5.47;3.20;;;14.80;78.20;;;;;;4964202;28;20057;-34
2024/04/01 12:50:02;;;;;;;6.97;3.25;;;14.90;78.10;;;;;;4966325;28;20023;-32
2024/04/01 12:52:53;;;;;;;5.28;2.72;;;14.90;77.90;;;;;;4964552;28;20031;-33
2024/04/01 12:55:23;;;;;;;3.80;2.95;;;15.00;77.70;;;;;;4969136;28;20137;-35
2024/04/01 12:58:15;;;;;;;6.13;3.28;;;15.00;77.60;;;;;;4977954;28;20062;-33
2024/04/01 13:00:47;;;;;;;5.53;3.30;;;15.00;77.50;;;;;;4965922;28;20065;-32
2024/04/01 13:03:31;;;;;;;5.70;2.90;;;15.00;77.50;;;;;;4977275;28;20066;-32